createdAt,value
2022-07-29T00:00:19.010Z,89.60
2022-07-29T00:02:46.314Z,90.00
2022-07-29T00:05:14.610Z,90.10
2022-07-29T00:07:42.315Z,90.20
2022-07-29T00:10:10.985Z,90.40
2022-07-29T00:12:38.284Z,90.60
2022-07-29T00:15:06.414Z,90.50
2022-07-29T00:17:34.960Z,90.40
2022-07-29T00:20:02.185Z,90.20
2022-07-29T00:22:29.361Z,90.00
2022-07-29T00:24:56.438Z,90.10
2022-07-29T00:27:24.938Z,90.00
2022-07-29T00:29:52.126Z,90.00
2022-07-29T00:32:19.354Z,90.10
2022-07-29T00:35:04.951Z,90.40
2022-07-29T00:37:32.186Z,90.70
2022-07-29T00:39:59.332Z,90.60
2022-07-29T00:42:28.504Z,90.60
2022-07-29T00:44:55.631Z,90.60
2022-07-29T00:47:22.784Z,91.00
2022-07-29T00:49:50.003Z,91.40
2022-07-29T00:52:17.343Z,91.90
2022-07-29T00:54:45.148Z,92.10
2022-07-29T00:57:13.352Z,92.00
2022-07-29T00:59:41.799Z,92.10
2022-07-29T01:02:08.943Z,92.40
2022-07-29T01:04:36.075Z,92.60
2022-07-29T01:07:04.174Z,93.10
2022-07-29T01:09:42.898Z,93.10
2022-07-29T01:12:16.372Z,93.90
2022-07-29T01:14:45.911Z,94.00
2022-07-29T01:17:18.901Z,94.00
2022-07-29T01:19:57.747Z,94.50
2022-07-29T01:22:36.409Z,94.20
2022-07-29T01:25:31.247Z,94.30
2022-07-29T01:28:14.912Z,94.60
2022-07-29T01:30:47.460Z,94.60
2022-07-29T01:33:38.545Z,94.80
2022-07-29T01:36:13.123Z,95.40
2022-07-29T01:38:43.847Z,95.00
2022-07-29T01:41:16.059Z,94.70
2022-07-29T01:43:50.555Z,94.40
2022-07-29T01:46:25.994Z,94.40
2022-07-29T01:48:58.439Z,94.20
2022-07-29T01:51:30.389Z,94.10
2022-07-29T01:54:05.244Z,94.40
2022-07-29T01:56:34.689Z,94.40
2022-07-29T01:59:04.089Z,94.30
2022-07-29T02:01:34.262Z,94.00
2022-07-29T02:04:04.123Z,93.60
2022-07-29T02:06:33.359Z,93.80
2022-07-29T02:09:03.340Z,93.80
2022-07-29T02:11:32.361Z,93.90
2022-07-29T02:14:01.091Z,94.10
2022-07-29T02:16:31.620Z,94.70
2022-07-29T02:19:01.959Z,95.20
2022-07-29T02:21:31.274Z,95.80
2022-07-29T02:24:01.045Z,96.10
2022-07-29T02:26:30.080Z,96.40
2022-07-29T02:29:00.109Z,96.60
2022-07-29T02:31:31.391Z,96.60
2022-07-29T02:34:01.692Z,96.00
2022-07-29T02:36:30.624Z,96.60
2022-07-29T02:39:01.549Z,96.30
2022-07-29T02:41:31.357Z,96.10
2022-07-29T02:44:11.744Z,96.00
2022-07-29T02:46:46.408Z,96.10
2022-07-29T02:49:20.535Z,96.90
2022-07-29T02:51:52.065Z,97.20
2022-07-29T02:54:27.083Z,97.60
2022-07-29T02:56:56.712Z,97.80
2022-07-29T02:59:28.088Z,98.10
2022-07-29T03:01:58.571Z,97.90
2022-07-29T03:04:30.278Z,98.40
2022-07-29T03:07:01.484Z,98.90
2022-07-29T03:09:29.595Z,99.40
2022-07-29T03:11:57.462Z,99.90
2022-07-29T03:14:25.291Z,99.90
2022-07-29T03:16:53.143Z,99.90
2022-07-29T03:19:21.289Z,99.90
2022-07-29T03:21:50.341Z,99.90
2022-07-29T03:24:28.946Z,99.90
2022-07-29T03:26:57.458Z,99.90
2022-07-29T03:29:25.691Z,99.90
2022-07-29T03:32:00.563Z,99.90
2022-07-29T03:34:29.885Z,99.90
2022-07-29T03:36:58.386Z,99.90
2022-07-29T03:39:25.805Z,99.90
2022-07-29T03:41:56.717Z,99.90
2022-07-29T03:44:26.129Z,99.90
2022-07-29T03:46:56.819Z,99.90
2022-07-29T03:49:26.455Z,99.90
2022-07-29T03:51:54.166Z,99.90
2022-07-29T03:54:23.566Z,99.90
2022-07-29T03:56:53.456Z,99.90
2022-07-29T03:59:21.060Z,99.90
2022-07-29T04:01:49.090Z,99.90
2022-07-29T04:04:16.918Z,99.90
2022-07-29T04:06:46.351Z,99.90
2022-07-29T04:09:15.808Z,99.90
2022-07-29T04:12:01.773Z,99.90
2022-07-29T04:14:31.360Z,99.90
2022-07-29T04:16:58.486Z,99.90
2022-07-29T04:19:25.626Z,99.90
2022-07-29T04:21:52.839Z,99.90
2022-07-29T04:24:20.345Z,99.90
2022-07-29T04:26:49.935Z,99.90
2022-07-29T04:29:16.897Z,99.90
2022-07-29T04:31:44.666Z,99.90
2022-07-29T04:34:13.346Z,99.90
2022-07-29T04:36:40.665Z,99.90
2022-07-29T04:39:07.804Z,99.90
2022-07-29T04:41:34.935Z,99.90
2022-07-29T04:44:07.004Z,99.90
2022-07-29T04:46:34.656Z,99.90
2022-07-29T04:49:01.846Z,99.90
2022-07-29T04:51:29.078Z,99.90
2022-07-29T04:53:56.315Z,99.90
2022-07-29T04:56:23.710Z,99.90
2022-07-29T04:58:50.824Z,99.90
2022-07-29T05:01:19.800Z,99.90
2022-07-29T05:03:47.174Z,99.90
2022-07-29T05:06:14.334Z,99.90
2022-07-29T05:08:41.886Z,99.90
2022-07-29T05:11:11.733Z,99.90
2022-07-29T05:13:46.154Z,99.90
2022-07-29T05:16:14.584Z,99.90
2022-07-29T05:18:43.396Z,99.90
2022-07-29T05:21:10.552Z,99.90
2022-07-29T05:23:37.609Z,99.90
2022-07-29T05:26:04.788Z,99.90
2022-07-29T05:28:34.364Z,99.90
2022-07-29T05:31:01.539Z,99.90
2022-07-29T05:33:34.969Z,99.90
2022-07-29T05:36:07.687Z,99.90
2022-07-29T05:38:35.416Z,99.80
2022-07-29T05:41:04.892Z,99.90
2022-07-29T05:43:32.732Z,99.90
2022-07-29T05:45:59.865Z,99.90
2022-07-29T05:48:27.275Z,99.60
2022-07-29T05:50:54.619Z,99.60
2022-07-29T05:53:23.507Z,99.90
2022-07-29T05:55:50.933Z,99.90
2022-07-29T05:58:18.179Z,99.90
2022-07-29T06:00:45.459Z,99.20
2022-07-29T06:03:12.520Z,99.00
2022-07-29T06:05:39.666Z,98.50
2022-07-29T06:08:08.100Z,98.00
2022-07-29T06:10:37.323Z,98.00
2022-07-29T06:13:04.374Z,97.60
2022-07-29T06:15:31.725Z,97.10
2022-07-29T06:18:01.522Z,97.70
2022-07-29T06:20:31.310Z,98.40
2022-07-29T06:22:59.078Z,99.50
2022-07-29T06:25:26.262Z,99.30
2022-07-29T06:27:54.910Z,99.90
2022-07-29T06:30:22.683Z,99.00
2022-07-29T06:32:50.360Z,99.30
2022-07-29T06:35:40.990Z,99.30
2022-07-29T06:38:09.585Z,98.70
2022-07-29T06:41:00.928Z,97.90
2022-07-29T06:43:32.471Z,97.10
2022-07-29T06:46:01.070Z,97.70
2022-07-29T06:48:29.673Z,96.90
2022-07-29T06:50:57.156Z,95.90
2022-07-29T06:53:24.487Z,95.80
2022-07-29T06:55:51.707Z,95.30
2022-07-29T06:58:21.262Z,94.70
2022-07-29T07:00:58.508Z,94.70
2022-07-29T07:03:25.955Z,94.10
2022-07-29T07:05:57.376Z,93.80
2022-07-29T07:08:25.621Z,94.30
2022-07-29T07:10:53.024Z,93.40
2022-07-29T07:13:20.414Z,90.10
2022-07-29T07:15:49.342Z,86.50
2022-07-29T07:18:18.200Z,82.80
2022-07-29T07:20:45.509Z,78.10
2022-07-29T07:23:12.613Z,74.80
2022-07-29T07:25:39.755Z,73.50
2022-07-29T07:28:06.870Z,73.30
2022-07-29T07:30:34.040Z,74.40
2022-07-29T07:33:01.219Z,73.60
2022-07-29T07:35:29.737Z,73.80
2022-07-29T07:37:57.319Z,72.40
2022-07-29T07:40:25.037Z,72.10
2022-07-29T07:42:52.326Z,71.80
2022-07-29T07:45:19.417Z,74.20
2022-07-29T07:47:46.570Z,75.00
2022-07-29T07:50:18.679Z,75.00
2022-07-29T07:52:53.053Z,75.20
2022-07-29T07:55:20.947Z,72.70
2022-07-29T07:57:48.335Z,72.50
2022-07-29T08:00:17.113Z,70.70
2022-07-29T08:02:44.360Z,70.60
2022-07-29T08:05:13.165Z,69.60
2022-07-29T08:07:40.457Z,65.90
2022-07-29T08:10:09.878Z,66.90
2022-07-29T08:12:36.924Z,67.60
2022-07-29T08:15:05.492Z,67.60
2022-07-29T08:17:35.356Z,71.20
2022-07-29T08:20:03.416Z,68.50
2022-07-29T08:22:30.512Z,67.60
2022-07-29T08:24:57.569Z,67.10
2022-07-29T08:27:43.062Z,65.30
2022-07-29T08:30:11.800Z,68.80
2022-07-29T08:32:55.695Z,64.70
2022-07-29T08:35:24.471Z,63.80
2022-07-29T08:37:51.925Z,62.70
2022-07-29T08:40:19.352Z,62.30
2022-07-29T08:42:48.003Z,61.20
2022-07-29T08:45:16.255Z,61.40
2022-07-29T08:47:46.156Z,62.40
2022-07-29T08:50:13.443Z,58.20
2022-07-29T08:52:41.907Z,57.80
2022-07-29T08:55:10.968Z,57.70
2022-07-29T08:57:50.819Z,57.30
2022-07-29T09:00:24.331Z,56.10
2022-07-29T09:02:57.227Z,57.40
2022-07-29T09:05:26.802Z,56.70
2022-07-29T09:07:54.344Z,58.00
2022-07-29T09:10:21.795Z,58.00
2022-07-29T09:12:49.841Z,58.10
2022-07-29T09:15:16.989Z,57.80
2022-07-29T09:17:48.147Z,57.60
2022-07-29T09:20:16.948Z,57.50
2022-07-29T09:22:44.719Z,57.90
2022-07-29T09:25:14.592Z,58.50
2022-07-29T09:27:42.165Z,57.90
2022-07-29T09:30:11.709Z,58.50
2022-07-29T09:32:59.921Z,57.50
2022-07-29T09:35:28.537Z,58.00
2022-07-29T09:37:56.023Z,56.20
2022-07-29T09:40:25.792Z,57.30
2022-07-29T09:42:56.559Z,54.40
2022-07-29T09:45:31.749Z,55.70
2022-07-29T09:48:04.004Z,56.90
2022-07-29T09:50:39.771Z,55.60
2022-07-29T09:53:07.293Z,55.20
2022-07-29T09:55:46.681Z,55.50
2022-07-29T09:58:18.422Z,55.20
2022-07-29T10:00:47.097Z,55.00
2022-07-29T10:03:16.867Z,52.60
2022-07-29T10:05:45.255Z,53.70
2022-07-29T10:08:13.509Z,52.60
2022-07-29T10:10:45.502Z,53.60
2022-07-29T10:13:16.179Z,51.20
2022-07-29T10:15:46.365Z,51.10
2022-07-29T10:18:18.676Z,50.10
2022-07-29T10:20:46.068Z,50.90
2022-07-29T10:23:13.657Z,48.50
2022-07-29T10:25:45.920Z,50.50
2022-07-29T10:28:16.562Z,48.50
2022-07-29T10:30:45.514Z,48.20
2022-07-29T10:33:28.197Z,45.70
2022-07-29T10:36:10.624Z,45.80
2022-07-29T10:38:54.913Z,45.90
2022-07-29T10:41:47.043Z,46.30
2022-07-29T10:44:19.351Z,45.30
2022-07-29T10:46:54.582Z,46.70
2022-07-29T10:49:26.147Z,48.60
2022-07-29T10:52:05.983Z,50.00
2022-07-29T10:54:52.040Z,50.10
2022-07-29T10:57:53.042Z,47.50
2022-07-29T11:00:35.504Z,49.60
2022-07-29T11:03:04.791Z,47.00
2022-07-29T11:05:56.505Z,45.20
2022-07-29T11:08:27.675Z,44.80
2022-07-29T11:11:37.909Z,45.50
2022-07-29T11:14:05.088Z,44.90
2022-07-29T11:17:06.396Z,45.40
2022-07-29T11:19:35.873Z,45.00
2022-07-29T11:22:08.686Z,44.40
2022-07-29T11:24:37.101Z,45.40
2022-07-29T11:27:08.757Z,43.30
2022-07-29T11:29:40.274Z,45.30
2022-07-29T11:32:15.753Z,46.00
2022-07-29T11:34:45.770Z,46.20
2022-07-29T11:37:28.117Z,46.70
2022-07-29T11:40:16.585Z,46.50
2022-07-29T11:42:52.195Z,48.40
2022-07-29T11:45:44.718Z,47.60
2022-07-29T11:48:27.901Z,46.90
2022-07-29T11:50:58.368Z,45.80
2022-07-29T11:56:16.471Z,46.00
2022-07-29T11:58:45.604Z,43.30
2022-07-29T12:01:15.153Z,43.60
2022-07-29T12:03:43.693Z,43.70
2022-07-29T12:06:17.390Z,43.50
2022-07-29T12:08:47.511Z,46.60
2022-07-29T12:11:20.381Z,46.30
2022-07-29T12:13:49.196Z,44.20
2022-07-29T12:16:29.533Z,45.10
2022-07-29T12:18:58.499Z,45.40
2022-07-29T12:21:26.694Z,47.20
2022-07-29T12:24:03.342Z,44.90
2022-07-29T12:26:34.302Z,45.60
2022-07-29T12:29:03.749Z,45.20
2022-07-29T12:31:42.292Z,46.00
2022-07-29T12:34:12.675Z,47.20
2022-07-29T12:36:40.070Z,45.00
2022-07-29T12:39:10.111Z,44.60
2022-07-29T12:41:37.245Z,45.30
2022-07-29T12:44:05.125Z,44.60
2022-07-29T12:46:32.486Z,47.60
2022-07-29T12:48:59.926Z,48.50
2022-07-29T12:51:32.234Z,48.40
2022-07-29T12:54:09.378Z,48.00
2022-07-29T12:56:44.930Z,45.80
2022-07-29T12:59:14.737Z,47.20
2022-07-29T13:01:42.569Z,47.90
2022-07-29T13:04:11.118Z,46.60
2022-07-29T13:06:41.149Z,48.30
2022-07-29T13:09:11.909Z,48.80
2022-07-29T13:11:46.573Z,51.40
2022-07-29T13:14:32.622Z,48.70
2022-07-29T13:17:06.186Z,48.70
2022-07-29T13:19:38.790Z,47.80
2022-07-29T13:22:06.183Z,47.00
2022-07-29T13:24:34.946Z,48.40
2022-07-29T13:27:02.038Z,49.10
2022-07-29T13:29:33.218Z,47.80
2022-07-29T13:32:00.902Z,48.30
2022-07-29T13:34:28.307Z,49.10
2022-07-29T13:36:55.406Z,47.90
2022-07-29T13:39:22.938Z,49.00
2022-07-29T13:41:52.022Z,48.60
2022-07-29T13:44:19.401Z,47.00
2022-07-29T13:46:49.568Z,48.00
2022-07-29T13:49:17.025Z,48.50
2022-07-29T13:51:44.269Z,49.40
2022-07-29T13:54:11.474Z,49.40
2022-07-29T13:56:38.564Z,51.90
2022-07-29T13:59:06.996Z,54.90
2022-07-29T14:01:34.442Z,55.40
2022-07-29T14:04:01.617Z,56.10
2022-07-29T14:06:28.942Z,56.40
2022-07-29T14:08:57.177Z,57.30
2022-07-29T14:11:24.391Z,57.90
2022-07-29T14:13:51.550Z,57.60
2022-07-29T14:16:20.092Z,57.10
2022-07-29T14:18:47.404Z,57.70
2022-07-29T14:21:14.453Z,55.50
2022-07-29T14:23:42.414Z,56.80
2022-07-29T14:26:15.999Z,56.40
2022-07-29T14:28:49.815Z,55.80
2022-07-29T14:31:17.457Z,54.50
2022-07-29T14:33:46.188Z,54.40
2022-07-29T14:36:16.333Z,53.50
2022-07-29T14:38:43.498Z,53.90
2022-07-29T14:41:10.699Z,54.30
2022-07-29T14:43:37.933Z,54.50
2022-07-29T14:46:08.305Z,53.70
2022-07-29T14:48:36.072Z,53.20
2022-07-29T14:51:05.235Z,52.70
2022-07-29T14:53:32.934Z,51.70
2022-07-29T14:56:10.391Z,51.60
2022-07-29T14:58:51.643Z,50.50
2022-07-29T15:01:22.347Z,50.70
2022-07-29T15:03:49.791Z,50.40
2022-07-29T15:06:18.265Z,50.60
2022-07-29T15:08:45.439Z,48.20
2022-07-29T15:11:12.559Z,46.80
2022-07-29T15:13:39.915Z,48.40
2022-07-29T15:16:07.401Z,47.60
2022-07-29T15:18:34.602Z,49.50
2022-07-29T15:21:03.208Z,49.10
2022-07-29T15:23:31.767Z,49.80
2022-07-29T15:25:58.944Z,50.10
2022-07-29T15:28:26.682Z,48.70
2022-07-29T15:30:53.873Z,48.70
2022-07-29T15:33:21.152Z,49.50
2022-07-29T15:35:48.448Z,50.00
2022-07-29T15:38:17.269Z,50.40
2022-07-29T15:40:47.016Z,50.10
2022-07-29T15:43:14.203Z,49.00
2022-07-29T15:46:03.377Z,48.40
2022-07-29T15:48:30.526Z,49.40
2022-07-29T15:50:57.654Z,49.50
2022-07-29T15:53:25.809Z,49.40
2022-07-29T15:55:54.256Z,49.40
2022-07-29T15:58:21.514Z,49.40
2022-07-29T16:00:48.651Z,49.10
2022-07-29T16:03:16.260Z,49.30
2022-07-29T16:05:43.668Z,50.00
2022-07-29T16:08:10.784Z,49.10
2022-07-29T16:10:38.081Z,49.30
2022-07-29T16:13:06.662Z,49.20
2022-07-29T16:15:34.703Z,49.30
2022-07-29T16:18:01.833Z,50.10
2022-07-29T16:20:30.336Z,50.50
2022-07-29T16:22:57.511Z,50.30
2022-07-29T16:25:43.912Z,50.60
2022-07-29T16:28:13.177Z,50.10
2022-07-29T16:30:40.335Z,50.20
2022-07-29T16:33:08.483Z,50.20
2022-07-29T16:35:39.188Z,50.10
2022-07-29T16:38:07.183Z,51.10
2022-07-29T16:40:34.211Z,51.10
2022-07-29T16:43:01.388Z,51.40
2022-07-29T16:45:32.680Z,51.80
2022-07-29T16:48:13.012Z,52.20
2022-07-29T16:50:43.258Z,51.80
2022-07-29T16:53:10.705Z,51.20
2022-07-29T16:55:38.157Z,50.70
2022-07-29T16:58:05.299Z,50.70
2022-07-29T17:00:33.976Z,51.30
2022-07-29T17:03:01.103Z,51.90
2022-07-29T17:05:28.214Z,51.50
2022-07-29T17:07:56.109Z,51.60
2022-07-29T17:10:23.487Z,51.00
2022-07-29T17:12:50.750Z,50.70
2022-07-29T17:15:18.552Z,50.60
2022-07-29T17:17:56.525Z,49.90
2022-07-29T17:20:24.171Z,51.20
2022-07-29T17:22:51.350Z,50.90
2022-07-29T17:25:20.876Z,51.00
2022-07-29T17:27:49.710Z,50.40
2022-07-29T17:30:17.226Z,51.30
2022-07-29T17:32:44.377Z,50.70
2022-07-29T17:35:31.343Z,50.80
2022-07-29T17:37:58.500Z,50.90
2022-07-29T17:40:25.658Z,51.10
2022-07-29T17:42:52.811Z,52.20
2022-07-29T17:45:19.917Z,52.30
2022-07-29T17:47:47.104Z,52.20
2022-07-29T17:50:15.531Z,54.20
2022-07-29T17:52:42.713Z,55.50
2022-07-29T17:55:10.536Z,55.80
2022-07-29T17:57:37.894Z,56.10
2022-07-29T18:00:08.262Z,56.90
2022-07-29T18:02:37.629Z,57.10
2022-07-29T18:05:05.461Z,56.90
2022-07-29T18:07:36.245Z,57.00
2022-07-29T18:10:05.048Z,57.40
2022-07-29T18:12:32.177Z,57.20
2022-07-29T18:14:59.330Z,57.50
2022-07-29T18:17:35.085Z,57.70
2022-07-29T18:20:13.741Z,57.70
2022-07-29T18:22:42.176Z,57.90
2022-07-29T18:25:09.672Z,58.60
2022-07-29T18:27:36.803Z,58.80
2022-07-29T18:30:05.138Z,59.00
2022-07-29T18:32:32.403Z,59.70
2022-07-29T18:35:02.915Z,60.60
2022-07-29T18:38:02.168Z,60.10
2022-07-29T18:40:25.323Z,59.80
2022-07-29T18:42:53.281Z,59.50
2022-07-29T18:45:20.557Z,59.20
2022-07-29T18:47:49.360Z,59.10
2022-07-29T18:50:16.847Z,59.10
2022-07-29T18:52:46.285Z,59.20
2022-07-29T18:55:13.894Z,59.50
2022-07-29T18:57:55.077Z,59.50
2022-07-29T19:00:25.284Z,59.40
2022-07-29T19:02:52.855Z,60.00
2022-07-29T19:05:20.898Z,59.30
2022-07-29T19:07:48.107Z,59.80
2022-07-29T19:10:15.262Z,59.40
2022-07-29T19:12:43.824Z,59.50
2022-07-29T19:15:11.498Z,59.90
2022-07-29T19:17:39.033Z,59.80
2022-07-29T19:20:07.486Z,60.30
2022-07-29T19:22:34.695Z,60.30
2022-07-29T19:25:02.104Z,60.10
2022-07-29T19:27:29.436Z,60.20
2022-07-29T19:29:59.564Z,60.50
2022-07-29T19:32:26.865Z,61.90
2022-07-29T19:35:12.734Z,61.40
2022-07-29T19:37:39.890Z,61.50
2022-07-29T19:40:07.921Z,61.70
2022-07-29T19:42:35.354Z,63.20
2022-07-29T19:45:05.619Z,63.00
2022-07-29T19:47:32.789Z,63.20
2022-07-29T19:50:00.689Z,63.60
2022-07-29T19:52:27.945Z,64.30
2022-07-29T19:54:55.241Z,64.90
2022-07-29T19:57:22.470Z,65.20
2022-07-29T19:59:51.335Z,65.80
2022-07-29T20:02:19.836Z,66.60
2022-07-29T20:04:47.410Z,66.40
2022-07-29T20:07:14.751Z,67.00
2022-07-29T20:09:42.491Z,67.30
2022-07-29T20:12:10.525Z,68.00
2022-07-29T20:14:38.133Z,68.50
2022-07-29T20:17:05.515Z,68.80
2022-07-29T20:19:34.634Z,69.50
2022-07-29T20:22:01.774Z,70.10
2022-07-29T20:24:29.229Z,70.60
2022-07-29T20:26:56.757Z,71.10
2022-07-29T20:29:24.003Z,71.30
2022-07-29T20:31:51.494Z,72.10
2022-07-29T20:34:23.826Z,72.30
2022-07-29T20:36:52.403Z,72.70
2022-07-29T20:39:21.100Z,73.40
2022-07-29T20:41:48.424Z,73.90
2022-07-29T20:44:15.867Z,74.70
2022-07-29T20:46:43.270Z,75.20
2022-07-29T20:49:10.780Z,75.40
2022-07-29T20:51:43.981Z,76.00
2022-07-29T20:54:12.923Z,76.50
2022-07-29T20:56:41.351Z,76.90
2022-07-29T20:59:08.985Z,77.50
2022-07-29T21:01:36.275Z,78.10
2022-07-29T21:04:03.889Z,79.10
2022-07-29T21:06:31.744Z,79.70
2022-07-29T21:08:59.751Z,80.70
2022-07-29T21:11:44.171Z,81.90
2022-07-29T21:14:27.349Z,82.90
2022-07-29T21:16:54.833Z,84.30
2022-07-29T21:19:21.971Z,85.50
2022-07-29T21:21:49.061Z,86.80
2022-07-29T21:24:16.367Z,86.70
2022-07-29T21:26:50.754Z,87.30
2022-07-29T21:29:32.068Z,87.50
2022-07-29T21:31:59.252Z,88.50
2022-07-29T21:34:27.967Z,89.20
2022-07-29T21:36:55.095Z,89.90
2022-07-29T21:39:22.304Z,90.70
2022-07-29T21:41:50.869Z,91.10
2022-07-29T21:44:18.861Z,91.50
2022-07-29T21:46:45.955Z,91.90
2022-07-29T21:49:13.145Z,92.50
2022-07-29T21:51:40.325Z,93.10
2022-07-29T21:54:07.385Z,94.40
2022-07-29T21:56:35.707Z,95.50
2022-07-29T21:59:04.779Z,96.40
2022-07-29T22:01:38.867Z,97.90
2022-07-29T22:04:06.651Z,98.50
2022-07-29T22:06:34.572Z,99.30
2022-07-29T22:09:01.729Z,99.80
2022-07-29T22:11:29.136Z,99.90
2022-07-29T22:13:56.586Z,99.90
2022-07-29T22:16:25.884Z,99.90
2022-07-29T22:18:53.064Z,99.90
2022-07-29T22:21:20.308Z,99.90
2022-07-29T22:23:47.408Z,99.90
2022-07-29T22:26:14.281Z,99.90
2022-07-29T22:28:41.468Z,99.90
2022-07-29T22:31:08.670Z,99.90
2022-07-29T22:33:37.227Z,99.90
2022-07-29T22:36:04.657Z,99.90
2022-07-29T22:38:31.742Z,99.90
2022-07-29T22:41:00.679Z,99.90
2022-07-29T22:43:28.863Z,99.90
2022-07-29T22:45:56.006Z,99.90
2022-07-29T22:48:23.222Z,99.90
2022-07-29T22:50:51.665Z,99.90
2022-07-29T22:53:18.953Z,99.90
2022-07-29T22:55:46.177Z,99.90
2022-07-29T22:58:13.276Z,99.90
2022-07-29T23:00:41.202Z,99.90
2022-07-29T23:03:08.389Z,99.90
2022-07-29T23:05:35.660Z,99.90
2022-07-29T23:08:04.654Z,99.90
2022-07-29T23:10:31.996Z,99.90
2022-07-29T23:12:59.102Z,99.90
2022-07-29T23:15:26.201Z,99.90
2022-07-29T23:17:53.319Z,99.90
2022-07-29T23:20:20.492Z,99.90
2022-07-29T23:22:47.657Z,99.90
2022-07-29T23:25:16.093Z,99.90
2022-07-29T23:27:43.165Z,99.90
2022-07-29T23:30:10.949Z,99.90
2022-07-29T23:32:38.047Z,99.90
2022-07-29T23:35:07.009Z,99.90
2022-07-29T23:37:34.395Z,99.90
2022-07-29T23:40:01.513Z,99.90
2022-07-29T23:42:30.033Z,99.90
2022-07-29T23:44:57.274Z,99.90
2022-07-29T23:47:24.577Z,99.90
2022-07-29T23:49:51.738Z,99.90
2022-07-29T23:52:19.031Z,99.90
2022-07-29T23:54:46.109Z,99.90
2022-07-29T23:57:13.259Z,99.90
2022-07-29T23:59:41.772Z,99.90
